sensor_id;sensor_type;location;lat;lon;timestamp;pressure;altitude;pressure_sealevel;temperature;humidity
29045;BME280;16133;49.486;12.176;2022-08-20T00:00:22;97099.13;;;16.08;100.00
29045;BME280;16133;49.486;12.176;2022-08-20T00:02:51;97109.19;;;16.13;100.00
29045;BME280;16133;49.486;12.176;2022-08-20T00:05:23;97098.16;;;16.03;100.00
29045;BME280;16133;49.486;12.176;2022-08-20T00:07:49;97095.34;;;15.98;100.00
29045;BME280;16133;49.486;12.176;2022-08-20T00:10:15;97097.03;;;15.92;100.00
29045;BME280;16133;49.486;12.176;2022-08-20T00:12:46;97097.84;;;15.93;100.00
29045;BME280;16133;49.486;12.176;2022-08-20T00:15:13;97111.97;;;16.00;100.00
29045;BME280;16133;49.486;12.176;2022-08-20T00:17:39;97112.63;;;15.95;100.00
29045;BME280;16133;49.486;12.176;2022-08-20T00:20:09;97114.56;;;15.88;100.00
29045;BME280;16133;49.486;12.176;2022-08-20T00:22:35;97100.88;;;15.78;100.00
29045;BME280;16133;49.486;12.176;2022-08-20T00:25:01;97113.91;;;15.93;100.00
29045;BME280;16133;49.486;12.176;2022-08-20T00:27:27;97119.25;;;15.93;100.00
29045;BME280;16133;49.486;12.176;2022-08-20T00:29:52;97103.91;;;15.82;100.00
29045;BME280;16133;49.486;12.176;2022-08-20T00:32:17;97120.53;;;15.90;100.00
29045;BME280;16133;49.486;12.176;2022-08-20T00:34:42;97115.16;;;15.90;100.00
29045;BME280;16133;49.486;12.176;2022-08-20T00:37:08;97114.47;;;15.95;100.00
29045;BME280;16133;49.486;12.176;2022-08-20T00:39:34;97127.47;;;15.91;100.00
29045;BME280;16133;49.486;12.176;2022-08-20T00:41:59;97123.41;;;15.89;100.00
29045;BME280;16133;49.486;12.176;2022-08-20T00:44:25;97120.72;;;15.89;100.00
29045;BME280;16133;49.486;12.176;2022-08-20T00:46:51;97125.09;;;15.83;100.00
29045;BME280;16133;49.486;12.176;2022-08-20T00:49:27;97122.19;;;15.85;100.00
29045;BME280;16133;49.486;12.176;2022-08-20T00:52:05;97124.28;;;15.83;100.00
29045;BME280;16133;49.486;12.176;2022-08-20T00:54:38;97131.63;;;15.87;100.00
29045;BME280;16133;49.486;12.176;2022-08-20T00:57:22;97137.00;;;15.87;100.00
29045;BME280;16133;49.486;12.176;2022-08-20T00:59:50;97150.22;;;15.82;100.00
29045;BME280;16133;49.486;12.176;2022-08-20T01:02:17;97147.59;;;15.75;100.00
29045;BME280;16133;49.486;12.176;2022-08-20T01:04:44;97147.19;;;15.72;100.00
29045;BME280;16133;49.486;12.176;2022-08-20T01:07:15;97152.56;;;15.72;100.00
29045;BME280;16133;49.486;12.176;2022-08-20T01:09:44;97157.75;;;15.67;100.00
29045;BME280;16133;49.486;12.176;2022-08-20T01:12:11;97154.53;;;15.58;100.00
29045;BME280;16133;49.486;12.176;2022-08-20T01:14:38;97155.50;;;15.64;100.00
29045;BME280;16133;49.486;12.176;2022-08-20T01:17:14;97151.19;;;15.63;100.00
29045;BME280;16133;49.486;12.176;2022-08-20T01:20:06;97154.53;;;15.58;100.00
29045;BME280;16133;49.486;12.176;2022-08-20T01:26:20;97143.81;;;15.58;100.00
29045;BME280;16133;49.486;12.176;2022-08-20T01:28:49;97154.31;;;15.60;100.00
29045;BME280;16133;49.486;12.176;2022-08-20T01:31:25;97145.53;;;15.46;100.00
29045;BME280;16133;49.486;12.176;2022-08-20T01:33:52;97154.19;;;15.42;100.00
29045;BME280;16133;49.486;12.176;2022-08-20T01:36:23;97144.38;;;15.36;100.00
29045;BME280;16133;49.486;12.176;2022-08-20T01:38:49;97140.53;;;15.25;100.00
29045;BME280;16133;49.486;12.176;2022-08-20T01:41:21;97145.69;;;15.20;100.00
29045;BME280;16133;49.486;12.176;2022-08-20T01:43:50;97146.28;;;15.22;100.00
29045;BME280;16133;49.486;12.176;2022-08-20T01:46:40;97132.16;;;15.15;100.00
29045;BME280;16133;49.486;12.176;2022-08-20T01:49:21;97124.81;;;15.04;100.00
29045;BME280;16133;49.486;12.176;2022-08-20T01:51:47;97117.84;;;15.03;100.00
29045;BME280;16133;49.486;12.176;2022-08-20T01:54:13;97112.53;;;14.96;100.00
29045;BME280;16133;49.486;12.176;2022-08-20T01:56:59;97105.16;;;14.92;100.00
29045;BME280;16133;49.486;12.176;2022-08-20T01:59:26;97107.25;;;14.90;100.00
29045;BME280;16133;49.486;12.176;2022-08-20T02:01:52;97103.53;;;14.91;100.00
29045;BME280;16133;49.486;12.176;2022-08-20T02:04:18;97103.94;;;14.88;100.00
29045;BME280;16133;49.486;12.176;2022-08-20T02:06:47;97105.19;;;14.85;100.00
29045;BME280;16133;49.486;12.176;2022-08-20T02:09:13;97094.94;;;14.82;100.00
29045;BME280;16133;49.486;12.176;2022-08-20T02:11:39;97091.88;;;14.78;100.00
29045;BME280;16133;49.486;12.176;2022-08-20T02:14:08;97098.66;;;14.81;100.00
29045;BME280;16133;49.486;12.176;2022-08-20T02:16:37;97094.13;;;14.81;100.00
29045;BME280;16133;49.486;12.176;2022-08-20T02:19:11;97089.00;;;14.80;100.00
29045;BME280;16133;49.486;12.176;2022-08-20T02:21:41;97063.78;;;14.69;100.00
29045;BME280;16133;49.486;12.176;2022-08-20T02:24:08;97080.38;;;14.78;100.00
29045;BME280;16133;49.486;12.176;2022-08-20T02:26:33;97069.47;;;14.79;100.00
29045;BME280;16133;49.486;12.176;2022-08-20T02:29:04;97064.16;;;14.73;100.00
29045;BME280;16133;49.486;12.176;2022-08-20T02:31:30;97062.31;;;14.73;100.00
29045;BME280;16133;49.486;12.176;2022-08-20T02:33:55;97060.28;;;14.75;100.00
29045;BME280;16133;49.486;12.176;2022-08-20T02:36:20;97059.59;;;14.80;100.00
29045;BME280;16133;49.486;12.176;2022-08-20T02:38:46;97053.44;;;14.79;100.00
29045;BME280;16133;49.486;12.176;2022-08-20T02:41:12;97057.59;;;14.75;100.00
29045;BME280;16133;49.486;12.176;2022-08-20T02:43:38;97047.31;;;14.72;100.00
29045;BME280;16133;49.486;12.176;2022-08-20T02:46:05;97051.81;;;14.78;100.00
29045;BME280;16133;49.486;12.176;2022-08-20T02:48:31;97045.28;;;14.74;100.00
29045;BME280;16133;49.486;12.176;2022-08-20T02:51:00;97047.75;;;14.69;100.00
29045;BME280;16133;49.486;12.176;2022-08-20T02:53:31;97055.97;;;14.74;100.00
29045;BME280;16133;49.486;12.176;2022-08-20T02:55:57;97052.25;;;14.75;100.00
29045;BME280;16133;49.486;12.176;2022-08-20T02:58:23;97057.59;;;14.75;100.00
29045;BME280;16133;49.486;12.176;2022-08-20T03:00:48;97061.25;;;14.81;100.00
29045;BME280;16133;49.486;12.176;2022-08-20T03:03:15;97066.19;;;14.77;100.00
29045;BME280;16133;49.486;12.176;2022-08-20T03:05:43;97071.53;;;14.77;100.00
29045;BME280;16133;49.486;12.176;2022-08-20T03:08:10;97079.34;;;14.79;100.00
29045;BME280;16133;49.486;12.176;2022-08-20T03:10:37;97076.88;;;14.77;100.00
29045;BME280;16133;49.486;12.176;2022-08-20T03:13:03;97087.56;;;14.77;100.00
29045;BME280;16133;49.486;12.176;2022-08-20T03:15:31;97085.72;;;14.78;100.00
29045;BME280;16133;49.486;12.176;2022-08-20T03:17:57;97087.56;;;14.77;100.00
29045;BME280;16133;49.486;12.176;2022-08-20T03:20:24;97083.88;;;14.78;100.00
29045;BME280;16133;49.486;12.176;2022-08-20T03:22:50;97084.69;;;14.79;100.00
29045;BME280;16133;49.486;12.176;2022-08-20T03:25:16;97082.63;;;14.81;100.00
29045;BME280;16133;49.486;12.176;2022-08-20T03:27:42;97078.09;;;14.81;100.00
29045;BME280;16133;49.486;12.176;2022-08-20T03:30:11;97078.94;;;14.82;100.00
29045;BME280;16133;49.486;12.176;2022-08-20T03:32:37;97078.50;;;14.85;100.00
29045;BME280;16133;49.486;12.176;2022-08-20T03:35:06;97077.66;;;14.84;100.00
29045;BME280;16133;49.486;12.176;2022-08-20T03:37:33;97071.50;;;14.84;100.00
29045;BME280;16133;49.486;12.176;2022-08-20T03:40:00;97076.63;;;14.86;100.00
29045;BME280;16133;49.486;12.176;2022-08-20T03:42:26;97080.13;;;14.86;100.00
29045;BME280;16133;49.486;12.176;2022-08-20T03:44:52;97081.97;;;14.86;100.00
29045;BME280;16133;49.486;12.176;2022-08-20T03:47:19;97087.91;;;14.88;100.00
29045;BME280;16133;49.486;12.176;2022-08-20T03:49:44;97078.06;;;14.88;100.00
29045;BME280;16133;49.486;12.176;2022-08-20T03:52:11;97083.19;;;14.90;100.00
29045;BME280;16133;49.486;12.176;2022-08-20T03:54:37;97086.47;;;14.92;100.00
29045;BME280;16133;49.486;12.176;2022-08-20T03:57:03;97087.06;;;14.94;100.00
29045;BME280;16133;49.486;12.176;2022-08-20T03:59:29;97076.97;;;14.96;100.00
29045;BME280;16133;49.486;12.176;2022-08-20T04:01:57;97075.94;;;14.97;100.00
29045;BME280;16133;49.486;12.176;2022-08-20T04:04:23;97078.44;;;14.98;100.00
29045;BME280;16133;49.486;12.176;2022-08-20T04:06:48;97078.81;;;15.02;100.00
29045;BME280;16133;49.486;12.176;2022-08-20T04:09:14;97075.06;;;15.03;100.00
29045;BME280;16133;49.486;12.176;2022-08-20T04:11:41;97067.69;;;15.05;100.00
29045;BME280;16133;49.486;12.176;2022-08-20T04:14:07;97067.88;;;15.03;100.00
29045;BME280;16133;49.486;12.176;2022-08-20T04:16:32;97072.00;;;15.06;100.00
29045;BME280;16133;49.486;12.176;2022-08-20T04:18:57;97074.69;;;15.06;100.00
29045;BME280;16133;49.486;12.176;2022-08-20T04:21:23;97080.22;;;15.04;100.00
29045;BME280;16133;49.486;12.176;2022-08-20T04:23:48;97076.28;;;15.07;100.00
29045;BME280;16133;49.486;12.176;2022-08-20T04:26:14;97074.50;;;15.01;100.00
29045;BME280;16133;49.486;12.176;2022-08-20T04:28:40;97086.16;;;15.06;100.00
29045;BME280;16133;49.486;12.176;2022-08-20T04:31:05;97075.31;;;15.01;100.00
29045;BME280;16133;49.486;12.176;2022-08-20T04:33:31;97085.94;;;15.08;100.00
29045;BME280;16133;49.486;12.176;2022-08-20T04:35:58;97086.78;;;15.08;100.00
29045;BME280;16133;49.486;12.176;2022-08-20T04:38:28;97086.56;;;15.10;100.00
29045;BME280;16133;49.486;12.176;2022-08-20T04:40:53;97086.34;;;15.11;100.00
29045;BME280;16133;49.486;12.176;2022-08-20T04:43:31;97082.44;;;15.14;100.00
29045;BME280;16133;49.486;12.176;2022-08-20T04:45:59;97074.19;;;15.15;100.00
29045;BME280;16133;49.486;12.176;2022-08-20T04:48:27;97086.91;;;15.20;100.00
29045;BME280;16133;49.486;12.176;2022-08-20T04:50:54;97083.59;;;15.24;100.00
29045;BME280;16133;49.486;12.176;2022-08-20T04:53:22;97090.97;;;15.29;100.00
29045;BME280;16133;49.486;12.176;2022-08-20T04:55:48;97089.69;;;15.31;100.00
29045;BME280;16133;49.486;12.176;2022-08-20T04:58:26;97094.97;;;15.38;100.00
29045;BME280;16133;49.486;12.176;2022-08-20T05:00:56;97102.94;;;15.45;100.00
29045;BME280;16133;49.486;12.176;2022-08-20T05:03:23;97107.84;;;15.54;100.00
29045;BME280;16133;49.486;12.176;2022-08-20T05:05:49;97098.09;;;15.66;100.00
29045;BME280;16133;49.486;12.176;2022-08-20T05:08:15;97107.88;;;15.79;100.00
29045;BME280;16133;49.486;12.176;2022-08-20T05:10:42;97121.56;;;15.89;100.00
29045;BME280;16133;49.486;12.176;2022-08-20T05:13:08;97116.13;;;15.96;100.00
29045;BME280;16133;49.486;12.176;2022-08-20T05:15:34;97123.06;;;16.03;100.00
29045;BME280;16133;49.486;12.176;2022-08-20T05:18:02;97134.75;;;16.09;100.00
29045;BME280;16133;49.486;12.176;2022-08-20T05:20:32;97141.06;;;16.14;100.00
29045;BME280;16133;49.486;12.176;2022-08-20T05:22:59;97151.78;;;16.14;100.00
29045;BME280;16133;49.486;12.176;2022-08-20T05:25:27;97152.50;;;16.21;100.00
29045;BME280;16133;49.486;12.176;2022-08-20T05:28:21;97159.50;;;16.22;100.00
29045;BME280;16133;49.486;12.176;2022-08-20T05:30:47;97180.72;;;16.24;100.00
29045;BME280;16133;49.486;12.176;2022-08-20T05:33:15;97180.72;;;16.24;100.00
29045;BME280;16133;49.486;12.176;2022-08-20T05:35:42;97186.09;;;16.24;100.00
29045;BME280;16133;49.486;12.176;2022-08-20T05:38:11;97186.66;;;16.26;100.00
29045;BME280;16133;49.486;12.176;2022-08-20T05:40:37;97192.03;;;16.26;100.00
29045;BME280;16133;49.486;12.176;2022-08-20T05:43:04;97180.72;;;16.24;100.00
29045;BME280;16133;49.486;12.176;2022-08-20T05:45:32;97180.28;;;16.27;100.00
29045;BME280;16133;49.486;12.176;2022-08-20T05:48:02;97179.25;;;16.28;100.00
29045;BME280;16133;49.486;12.176;2022-08-20T05:50:28;97169.94;;;16.31;100.00
29045;BME280;16133;49.486;12.176;2022-08-20T05:52:53;97171.22;;;16.28;100.00
29045;BME280;16133;49.486;12.176;2022-08-20T05:55:20;97179.81;;;16.30;100.00
29045;BME280;16133;49.486;12.176;2022-08-20T05:57:47;97177.75;;;16.32;100.00
29045;BME280;16133;49.486;12.176;2022-08-20T06:00:13;97184.31;;;16.36;100.00
29045;BME280;16133;49.486;12.176;2022-08-20T06:02:39;97186.75;;;16.38;100.00
29045;BME280;16133;49.486;12.176;2022-08-20T06:05:23;97195.16;;;16.41;100.00
29045;BME280;16133;49.486;12.176;2022-08-20T06:07:49;97192.84;;;16.45;100.00
29045;BME280;16133;49.486;12.176;2022-08-20T06:10:15;97187.88;;;16.48;100.00
29045;BME280;16133;49.486;12.176;2022-08-20T06:12:41;97200.22;;;16.49;100.00
29045;BME280;16133;49.486;12.176;2022-08-20T06:15:08;97199.78;;;16.52;100.00
29045;BME280;16133;49.486;12.176;2022-08-20T06:17:34;97202.66;;;16.57;100.00
29045;BME280;16133;49.486;12.176;2022-08-20T06:20:02;97204.44;;;16.63;100.00
29045;BME280;16133;49.486;12.176;2022-08-20T06:22:29;97210.78;;;16.69;100.00
29045;BME280;16133;49.486;12.176;2022-08-20T06:24:55;97210.69;;;16.76;100.00
29045;BME280;16133;49.486;12.176;2022-08-20T06:27:21;97221.56;;;16.81;100.00
29045;BME280;16133;49.486;12.176;2022-08-20T06:29:46;97227.50;;;16.83;100.00
29045;BME280;16133;49.486;12.176;2022-08-20T06:32:12;97232.44;;;16.86;100.00
29045;BME280;16133;49.486;12.176;2022-08-20T06:34:38;97241.31;;;16.86;100.00
29045;BME280;16133;49.486;12.176;2022-08-20T06:37:13;97247.63;;;16.92;100.00
29045;BME280;16133;49.486;12.176;2022-08-20T06:39:40;97254.19;;;16.96;100.00
29045;BME280;16133;49.486;12.176;2022-08-20T06:42:06;97254.91;;;17.03;100.00
29045;BME280;16133;49.486;12.176;2022-08-20T06:44:31;97254.63;;;17.11;100.00
29045;BME280;16133;49.486;12.176;2022-08-20T06:47:00;97258.50;;;17.15;100.00
29045;BME280;16133;49.486;12.176;2022-08-20T06:49:28;97255.50;;;17.23;100.00
29045;BME280;16133;49.486;12.176;2022-08-20T06:51:54;97259.38;;;17.27;100.00
29045;BME280;16133;49.486;12.176;2022-08-20T06:54:19;97262.78;;;17.34;100.00
29045;BME280;16133;49.486;12.176;2022-08-20T06:56:45;97264.81;;;17.39;100.00
29045;BME280;16133;49.486;12.176;2022-08-20T06:59:11;97270.06;;;17.45;100.00
29045;BME280;16133;49.486;12.176;2022-08-20T07:01:36;97269.56;;;17.55;100.00
29045;BME280;16133;49.486;12.176;2022-08-20T07:04:01;97272.75;;;17.63;100.00
29045;BME280;16133;49.486;12.176;2022-08-20T07:06:27;97268.91;;;17.71;100.00
29045;BME280;16133;49.486;12.176;2022-08-20T07:08:54;97284.22;;;17.71;100.00
29045;BME280;16133;49.486;12.176;2022-08-20T07:11:20;97293.22;;;17.76;100.00
29045;BME280;16133;49.486;12.176;2022-08-20T07:13:46;97294.97;;;17.71;100.00
29045;BME280;16133;49.486;12.176;2022-08-20T07:16:13;97297.03;;;17.68;100.00
29045;BME280;16133;49.486;12.176;2022-08-20T07:18:39;97303.31;;;17.62;100.00
29045;BME280;16133;49.486;12.176;2022-08-20T07:21:04;97314.50;;;17.59;100.00
29045;BME280;16133;49.486;12.176;2022-08-20T07:23:30;97300.50;;;17.57;100.00
29045;BME280;16133;49.486;12.176;2022-08-20T07:25:55;97312.41;;;17.61;100.00
29045;BME280;16133;49.486;12.176;2022-08-20T07:28:23;97309.78;;;17.55;100.00
29045;BME280;16133;49.486;12.176;2022-08-20T07:30:49;97308.72;;;17.56;100.00
29045;BME280;16133;49.486;12.176;2022-08-20T07:33:35;97306.22;;;17.61;100.00
29045;BME280;16133;49.486;12.176;2022-08-20T07:36:02;97303.09;;;17.64;100.00
29045;BME280;16133;49.486;12.176;2022-08-20T07:38:29;97308.34;;;17.59;100.00
29045;BME280;16133;49.486;12.176;2022-08-20T07:41:00;97303.00;;;17.52;100.00
29045;BME280;16133;49.486;12.176;2022-08-20T07:43:28;97303.38;;;17.56;100.00
29045;BME280;16133;49.486;12.176;2022-08-20T07:45:56;97321.22;;;17.32;100.00
29045;BME280;16133;49.486;12.176;2022-08-20T07:48:23;97306.47;;;17.23;100.00
29045;BME280;16133;49.486;12.176;2022-08-20T07:50:57;97305.84;;;17.21;100.00
29045;BME280;16133;49.486;12.176;2022-08-20T07:53:23;97302.59;;;17.19;100.00
29045;BME280;16133;49.486;12.176;2022-08-20T07:55:49;97270.25;;;16.96;100.00
29045;BME280;16133;49.486;12.176;2022-08-20T07:58:18;97304.75;;;17.10;100.00
29045;BME280;16133;49.486;12.176;2022-08-20T08:00:44;97297.72;;;17.09;100.00
29045;BME280;16133;49.486;12.176;2022-08-20T08:03:10;97295.22;;;17.14;100.00
29045;BME280;16133;49.486;12.176;2022-08-20T08:05:38;97283.44;;;17.15;100.00
29045;BME280;16133;49.486;12.176;2022-08-20T08:08:06;97283.59;;;17.20;100.00
29045;BME280;16133;49.486;12.176;2022-08-20T08:10:33;97287.06;;;17.21;100.00
29045;BME280;16133;49.486;12.176;2022-08-20T08:13:03;97299.31;;;17.17;100.00
29045;BME280;16133;49.486;12.176;2022-08-20T08:15:31;97294.75;;;17.17;100.00
29045;BME280;16133;49.486;12.176;2022-08-20T08:18:02;97286.50;;;17.19;100.00
29045;BME280;16133;49.486;12.176;2022-08-20T08:20:31;97290.81;;;17.20;100.00
29045;BME280;16133;49.486;12.176;2022-08-20T08:22:56;97280.16;;;17.13;100.00
29045;BME280;16133;49.486;12.176;2022-08-20T08:25:22;97276.81;;;17.18;100.00
29045;BME280;16133;49.486;12.176;2022-08-20T08:27:47;97280.69;;;17.22;100.00
29045;BME280;16133;49.486;12.176;2022-08-20T08:30:14;97289.09;;;17.26;100.00
29045;BME280;16133;49.486;12.176;2022-08-20T08:32:41;97296.91;;;17.27;100.00
29045;BME280;16133;49.486;12.176;2022-08-20T08:35:26;97311.38;;;17.26;100.00
29045;BME280;16133;49.486;12.176;2022-08-20T08:37:52;97315.25;;;17.30;100.00
29045;BME280;16133;49.486;12.176;2022-08-20T08:40:19;97304.44;;;17.37;100.00
29045;BME280;16133;49.486;12.176;2022-08-20T08:42:48;97296.06;;;17.45;100.00
29045;BME280;16133;49.486;12.176;2022-08-20T08:45:20;97292.72;;;17.49;100.00
29045;BME280;16133;49.486;12.176;2022-08-20T08:47:46;97306.50;;;17.53;100.00
29045;BME280;16133;49.486;12.176;2022-08-20T08:50:25;97317.03;;;17.54;100.00
29045;BME280;16133;49.486;12.176;2022-08-20T08:52:54;97315.47;;;17.47;100.00
29045;BME280;16133;49.486;12.176;2022-08-20T08:55:26;97311.66;;;17.54;100.00
29045;BME280;16133;49.486;12.176;2022-08-20T08:57:54;97321.34;;;17.55;100.00
29045;BME280;16133;49.486;12.176;2022-08-20T09:00:21;97330.44;;;17.54;100.00
29045;BME280;16133;49.486;12.176;2022-08-20T09:03:05;97319.41;;;17.44;100.00
29045;BME280;16133;49.486;12.176;2022-08-20T09:05:36;97327.22;;;17.46;100.00
29045;BME280;16133;49.486;12.176;2022-08-20T09:08:06;97323.28;;;17.48;100.00
29045;BME280;16133;49.486;12.176;2022-08-20T09:10:33;97326.66;;;17.44;100.00
29045;BME280;16133;49.486;12.176;2022-08-20T09:12:58;97316.28;;;17.47;100.00
29045;BME280;16133;49.486;12.176;2022-08-20T09:15:25;97324.34;;;17.47;100.00
29045;BME280;16133;49.486;12.176;2022-08-20T09:17:51;97325.22;;;17.41;100.00
29045;BME280;16133;49.486;12.176;2022-08-20T09:20:17;97335.72;;;17.43;100.00
29045;BME280;16133;49.486;12.176;2022-08-20T09:22:42;97327.44;;;17.44;100.00
29045;BME280;16133;49.486;12.176;2022-08-20T09:25:08;97332.59;;;17.46;100.00
29045;BME280;16133;49.486;12.176;2022-08-20T09:27:33;97335.06;;;17.47;100.00
29045;BME280;16133;49.486;12.176;2022-08-20T09:29:58;97319.75;;;17.48;100.00
29045;BME280;16133;49.486;12.176;2022-08-20T09:32:24;97323.22;;;17.55;100.00
29045;BME280;16133;49.486;12.176;2022-08-20T09:34:52;97316.97;;;17.61;100.00
29045;BME280;16133;49.486;12.176;2022-08-20T09:37:22;97320.63;;;17.66;100.00
29045;BME280;16133;49.486;12.176;2022-08-20T09:39:47;97319.25;;;17.76;100.00
29045;BME280;16133;49.486;12.176;2022-08-20T09:42:21;97323.00;;;17.86;100.00
29045;BME280;16133;49.486;12.176;2022-08-20T09:44:48;97320.97;;;18.00;100.00
29045;BME280;16133;49.486;12.176;2022-08-20T09:47:13;97326.97;;;18.13;100.00
29045;BME280;16133;49.486;12.176;2022-08-20T09:49:40;97346.72;;;18.19;100.00
29045;BME280;16133;49.486;12.176;2022-08-20T09:52:07;97354.66;;;18.26;100.00
29045;BME280;16133;49.486;12.176;2022-08-20T09:54:34;97363.91;;;18.30;100.00
29045;BME280;16133;49.486;12.176;2022-08-20T09:57:03;97368.59;;;18.34;100.00
29045;BME280;16133;49.486;12.176;2022-08-20T09:59:29;97369.19;;;18.36;100.00
29045;BME280;16133;49.486;12.176;2022-08-20T10:01:55;97362.53;;;18.39;100.00
29045;BME280;16133;49.486;12.176;2022-08-20T10:04:21;97372.00;;;18.41;100.00
29045;BME280;16133;49.486;12.176;2022-08-20T10:06:46;97367.34;;;18.48;100.00
29045;BME280;16133;49.486;12.176;2022-08-20T10:09:12;97365.19;;;18.57;100.00
29045;BME280;16133;49.486;12.176;2022-08-20T10:11:38;97360.88;;;18.68;100.00
29045;BME280;16133;49.486;12.176;2022-08-20T10:14:03;97370.72;;;18.74;100.00
29045;BME280;16133;49.486;12.176;2022-08-20T10:16:29;97377.94;;;18.73;100.00
29045;BME280;16133;49.486;12.176;2022-08-20T10:18:55;97375.63;;;18.77;100.00
29045;BME280;16133;49.486;12.176;2022-08-20T10:21:20;97373.06;;;18.82;100.00
29045;BME280;16133;49.486;12.176;2022-08-20T10:23:46;97377.13;;;18.84;100.00
29045;BME280;16133;49.486;12.176;2022-08-20T10:26:12;97374.19;;;18.86;100.00
29045;BME280;16133;49.486;12.176;2022-08-20T10:28:39;97371.75;;;18.84;100.00
29045;BME280;16133;49.486;12.176;2022-08-20T10:31:06;97370.47;;;18.87;100.00
29045;BME280;16133;49.486;12.176;2022-08-20T10:33:31;97369.66;;;18.86;100.00
29045;BME280;16133;49.486;12.176;2022-08-20T10:35:57;97371.28;;;18.87;100.00
29045;BME280;16133;49.486;12.176;2022-08-20T10:38:22;97366.25;;;18.91;100.00
29045;BME280;16133;49.486;12.176;2022-08-20T10:40:47;97373.16;;;18.98;100.00
29045;BME280;16133;49.486;12.176;2022-08-20T10:43:13;97369.91;;;19.08;100.00
29045;BME280;16133;49.486;12.176;2022-08-20T10:45:38;97371.66;;;19.14;100.00
29045;BME280;16133;49.486;12.176;2022-08-20T10:48:03;97372.34;;;19.21;100.00
29045;BME280;16133;49.486;12.176;2022-08-20T10:50:31;97370.13;;;19.30;100.00
29045;BME280;16133;49.486;12.176;2022-08-20T10:52:57;97367.78;;;19.33;100.00
29045;BME280;16133;49.486;12.176;2022-08-20T10:55:22;97375.84;;;19.33;100.00
29045;BME280;16133;49.486;12.176;2022-08-20T10:57:48;97376.88;;;19.32;100.00
29045;BME280;16133;49.486;12.176;2022-08-20T11:00:15;97379.50;;;19.27;100.00
29045;BME280;16133;49.486;12.176;2022-08-20T11:02:41;97383.78;;;19.28;100.00
29045;BME280;16133;49.486;12.176;2022-08-20T11:05:07;97384.88;;;19.27;100.00
29045;BME280;16133;49.486;12.176;2022-08-20T11:07:35;97386.47;;;19.28;100.00
29045;BME280;16133;49.486;12.176;2022-08-20T11:10:01;97385.69;;;19.28;100.00
29045;BME280;16133;49.486;12.176;2022-08-20T11:12:26;97390.25;;;19.27;100.00
29045;BME280;16133;49.486;12.176;2022-08-20T11:14:52;97390.25;;;19.27;100.00
29045;BME280;16133;49.486;12.176;2022-08-20T11:17:26;97388.13;;;19.29;100.00
29045;BME280;16133;49.486;12.176;2022-08-20T11:19:51;97388.13;;;19.29;100.00
29045;BME280;16133;49.486;12.176;2022-08-20T11:22:17;97389.78;;;19.30;100.00
29045;BME280;16133;49.486;12.176;2022-08-20T11:24:43;97386.59;;;19.33;100.00
29045;BME280;16133;49.486;12.176;2022-08-20T11:27:09;97384.03;;;19.38;100.00
29045;BME280;16133;49.486;12.176;2022-08-20T11:29:35;97378.19;;;19.41;100.00
29045;BME280;16133;49.486;12.176;2022-08-20T11:32:02;97387.44;;;19.45;100.00
29045;BME280;16133;49.486;12.176;2022-08-20T11:34:27;97384.06;;;19.50;100.00
29045;BME280;16133;49.486;12.176;2022-08-20T11:36:53;97382.88;;;19.58;100.00
29045;BME280;16133;49.486;12.176;2022-08-20T11:39:19;97387.28;;;19.64;100.00
29045;BME280;16133;49.486;12.176;2022-08-20T11:41:44;97386.94;;;19.72;100.00
29045;BME280;16133;49.486;12.176;2022-08-20T11:44:10;97388.91;;;19.76;100.00
29045;BME280;16133;49.486;12.176;2022-08-20T11:46:35;97393.59;;;19.81;100.00
29045;BME280;16133;49.486;12.176;2022-08-20T11:49:01;97391.47;;;19.83;100.00
29045;BME280;16133;49.486;12.176;2022-08-20T11:51:27;97393.09;;;19.84;100.00
29045;BME280;16133;49.486;12.176;2022-08-20T11:53:52;97389.38;;;19.85;100.00
29045;BME280;16133;49.486;12.176;2022-08-20T11:56:18;97398.25;;;19.85;100.00
29045;BME280;16133;49.486;12.176;2022-08-20T11:58:44;97390.19;;;19.85;100.00
29045;BME280;16133;49.486;12.176;2022-08-20T12:01:10;97388.28;;;19.86;100.00
29045;BME280;16133;49.486;12.176;2022-08-20T12:03:35;97388.88;;;19.88;100.00
29045;BME280;16133;49.486;12.176;2022-08-20T12:06:01;97395.91;;;19.89;100.00
29045;BME280;16133;49.486;12.176;2022-08-20T12:08:26;97399.31;;;19.84;100.00
29045;BME280;16133;49.486;12.176;2022-08-20T12:10:54;97402.22;;;19.83;100.00
29045;BME280;16133;49.486;12.176;2022-08-20T12:13:20;97393.94;;;19.84;100.00
29045;BME280;16133;49.486;12.176;2022-08-20T12:15:45;97394.97;;;19.83;100.00
29045;BME280;16133;49.486;12.176;2022-08-20T12:18:14;97389.81;;;19.82;100.00
29045;BME280;16133;49.486;12.176;2022-08-20T12:20:39;97394.16;;;19.83;100.00
29045;BME280;16133;49.486;12.176;2022-08-20T12:23:04;97386.41;;;19.86;100.00
29045;BME280;16133;49.486;12.176;2022-08-20T12:25:30;97382.19;;;19.90;100.00
29045;BME280;16133;49.486;12.176;2022-08-20T12:27:55;97388.06;;;19.87;100.00
29045;BME280;16133;49.486;12.176;2022-08-20T12:30:22;97385.38;;;19.87;100.00
29045;BME280;16133;49.486;12.176;2022-08-20T12:32:48;97389.00;;;19.93;100.00
29045;BME280;16133;49.486;12.176;2022-08-20T12:35:15;97387.19;;;19.98;100.00
29045;BME280;16133;49.486;12.176;2022-08-20T12:37:41;97383.69;;;19.98;100.00
29045;BME280;16133;49.486;12.176;2022-08-20T12:40:11;97377.34;;;20.04;100.00
29045;BME280;16133;49.486;12.176;2022-08-20T12:42:37;97333.31;;;19.70;100.00
29045;BME280;16133;49.486;12.176;2022-08-20T12:45:03;97289.25;;;19.48;100.00